Terminal Aerodrome Forecast
Issued by NWS

Home | Current Version | Previous Version | Text Only | Print | Product List | Glossary On
Versions: 1 2 3 4 5 6 7 8 9 10 11 12 13 14 15 16 17 18
655
FTAK31 PAJN 291120
TAFASI
TAF
PASI 291120Z 2912/3012 11006KT P6SM -SHRA SCT025 OVC040
     FM291900 19007KT P6SM -SHRA SCT025 OVC035
     FM300300 13009KT P6SM VCSH SCT020 BKN040 OVC070=

USA.gov is the U.S. government's official web portal to all federal, state and local government web resources and services.